createdAt,value
2023-04-18T00:02:09.284Z,74.04
2023-04-18T00:04:36.874Z,74.02
2023-04-18T00:07:04.144Z,74.22
2023-04-18T00:09:31.460Z,74.27
2023-04-18T00:11:58.737Z,74.14
2023-04-18T00:14:26.017Z,74.24
2023-04-18T00:16:54.324Z,74.23
2023-04-18T00:19:21.713Z,74.29
2023-04-18T00:21:49.677Z,74.05
2023-04-18T00:24:17.021Z,74.21
2023-04-18T00:26:44.188Z,74.14
2023-04-18T00:29:11.477Z,74.60
2023-04-18T00:31:38.696Z,74.63
2023-04-18T00:34:06.297Z,74.64
2023-04-18T00:36:33.494Z,74.47
2023-04-18T00:39:00.813Z,74.36
2023-04-18T00:41:28.439Z,74.76
2023-04-18T00:43:55.877Z,74.78
2023-04-18T00:46:23.294Z,74.89
2023-04-18T00:48:50.841Z,74.79
2023-04-18T00:51:18.079Z,74.98
2023-04-18T00:53:46.099Z,74.85
2023-04-18T00:56:13.367Z,74.85
2023-04-18T00:58:41.066Z,74.74
2023-04-18T01:01:09.343Z,74.74
2023-04-18T01:03:37.626Z,74.59
2023-04-18T01:06:05.020Z,74.42
2023-04-18T01:08:33.625Z,74.16
2023-04-18T01:11:00.786Z,74.51
2023-04-18T01:13:28.121Z,74.40
2023-04-18T01:15:56.300Z,74.31
2023-04-18T01:18:24.398Z,74.36
2023-04-18T01:20:52.270Z,74.49
2023-04-18T01:23:20.780Z,74.18
2023-04-18T01:25:49.423Z,74.64
2023-04-18T01:28:19.624Z,74.58
2023-04-18T01:30:47.015Z,74.54
2023-04-18T01:33:14.250Z,74.51
2023-04-18T01:35:41.597Z,74.82
2023-04-18T01:38:08.848Z,74.47
2023-04-18T01:40:36.167Z,74.63
2023-04-18T01:43:03.370Z,74.88
2023-04-18T01:45:30.641Z,75.25
2023-04-18T01:47:57.930Z,75.04
2023-04-18T01:50:25.423Z,75.13
2023-04-18T01:52:52.755Z,75.31
2023-04-18T01:55:20.053Z,75.59
2023-04-18T01:57:47.406Z,75.61
2023-04-18T02:00:14.991Z,75.61
2023-04-18T02:02:42.361Z,75.74
2023-04-18T02:05:09.713Z,75.79
2023-04-18T02:07:39.973Z,75.93
2023-04-18T02:10:08.732Z,75.79
2023-04-18T02:12:35.985Z,75.52
2023-04-18T02:15:03.634Z,75.66
2023-04-18T02:17:31.077Z,75.82
2023-04-18T02:19:58.425Z,75.75
2023-04-18T02:22:25.741Z,75.48
2023-04-18T02:24:53.505Z,75.71
2023-04-18T02:27:20.817Z,75.80
2023-04-18T02:29:48.222Z,76.09
2023-04-18T02:32:15.608Z,75.85
2023-04-18T02:34:45.009Z,75.89
2023-04-18T02:37:12.226Z,76.19
2023-04-18T02:39:40.716Z,76.36
2023-04-18T02:42:07.930Z,75.91
2023-04-18T02:44:35.170Z,76.28
2023-04-18T02:47:02.408Z,76.37
2023-04-18T02:49:30.272Z,76.39
2023-04-18T02:51:58.077Z,75.98
2023-04-18T02:54:25.408Z,76.05
2023-04-18T02:57:04.568Z,75.76
2023-04-18T02:59:40.726Z,75.81
2023-04-18T03:02:21.151Z,75.75
2023-04-18T03:04:54.133Z,75.81
2023-04-18T03:07:21.850Z,76.20
2023-04-18T03:09:50.991Z,76.11
2023-04-18T03:12:26.059Z,76.20
2023-04-18T03:14:53.677Z,76.24
2023-04-18T03:17:22.244Z,76.02
2023-04-18T03:19:50.360Z,75.96
2023-04-18T03:22:20.077Z,75.65
2023-04-18T03:24:56.297Z,75.97
2023-04-18T03:27:36.981Z,76.19
2023-04-18T03:30:05.187Z,76.57
2023-04-18T03:32:34.023Z,76.14
2023-04-18T03:35:01.466Z,76.31
2023-04-18T03:37:29.261Z,76.29
2023-04-18T03:39:57.338Z,76.78
2023-04-18T03:42:27.824Z,76.69
2023-04-18T03:44:55.183Z,76.96
2023-04-18T03:47:22.603Z,76.83
2023-04-18T03:49:55.717Z,76.83
2023-04-18T03:52:25.239Z,76.92
2023-04-18T03:54:52.477Z,76.92
2023-04-18T03:57:24.557Z,76.84
2023-04-18T03:59:52.393Z,76.93
2023-04-18T04:02:19.712Z,77.07
2023-04-18T04:04:47.302Z,76.89
2023-04-18T04:07:14.862Z,77.07
2023-04-18T04:09:42.724Z,76.68
2023-04-18T04:12:10.013Z,76.83
2023-04-18T04:14:37.464Z,76.48
2023-04-18T04:17:04.685Z,76.68
2023-04-18T04:19:32.299Z,76.87
2023-04-18T04:22:10.145Z,76.52
2023-04-18T04:24:39.135Z,76.73
2023-04-18T04:27:08.231Z,76.55
2023-04-18T04:29:39.371Z,76.57
2023-04-18T04:32:08.193Z,76.86
2023-04-18T04:34:38.325Z,76.83
2023-04-18T04:37:08.379Z,76.81
2023-04-18T04:39:42.048Z,76.67
2023-04-18T04:42:28.665Z,76.83
2023-04-18T04:45:03.896Z,76.77
2023-04-18T04:47:31.355Z,76.89
2023-04-18T04:49:59.143Z,76.78
2023-04-18T04:52:26.522Z,77.06
2023-04-18T04:54:53.816Z,76.95
2023-04-18T04:57:23.960Z,77.05
2023-04-18T04:59:51.910Z,77.14
2023-04-18T05:02:23.242Z,76.89
2023-04-18T05:04:51.148Z,77.07
2023-04-18T05:07:18.498Z,76.82
2023-04-18T05:09:46.029Z,76.90
2023-04-18T05:12:13.320Z,76.93
2023-04-18T05:14:40.720Z,76.98
2023-04-18T05:17:08.613Z,76.87
2023-04-18T05:19:36.202Z,77.04
2023-04-18T05:22:03.520Z,76.95
2023-04-18T05:24:32.848Z,77.01
2023-04-18T05:27:00.250Z,76.95
2023-04-18T05:29:27.846Z,76.85
2023-04-18T05:31:55.356Z,77.03
2023-04-18T05:34:22.697Z,77.09
2023-04-18T05:36:50.074Z,78.07
2023-04-18T05:39:20.256Z,78.28
2023-04-18T05:41:51.048Z,77.81
2023-04-18T05:44:18.922Z,78.07
2023-04-18T05:46:46.849Z,78.63
2023-04-18T05:49:14.798Z,78.19
2023-04-18T05:51:42.427Z,78.20
2023-04-18T05:54:09.877Z,78.38
2023-04-18T05:56:37.250Z,77.88
2023-04-18T05:59:05.167Z,77.97
2023-04-18T06:01:32.705Z,77.75
2023-04-18T06:04:00.795Z,77.25
2023-04-18T06:06:28.346Z,77.27
2023-04-18T06:08:58.182Z,76.34
2023-04-18T06:11:25.659Z,76.99
2023-04-18T06:13:55.970Z,76.83
2023-04-18T06:16:23.570Z,75.82
2023-04-18T06:18:50.934Z,76.30
2023-04-18T06:21:21.477Z,76.68
2023-04-18T06:23:49.167Z,77.28
2023-04-18T06:26:17.498Z,76.53
2023-04-18T06:28:45.096Z,76.38
2023-04-18T06:31:12.529Z,76.20
2023-04-18T06:33:39.940Z,76.46
2023-04-18T06:36:07.732Z,76.28
2023-04-18T06:38:35.179Z,75.73
2023-04-18T06:41:02.676Z,75.43
2023-04-18T06:43:30.183Z,75.52
2023-04-18T06:45:57.707Z,75.20
2023-04-18T06:48:25.642Z,75.01
2023-04-18T06:50:53.589Z,74.44
2023-04-18T06:53:21.632Z,74.61
2023-04-18T06:55:49.404Z,74.29
2023-04-18T06:58:17.455Z,74.52
2023-04-18T07:00:47.753Z,74.33
2023-04-18T07:03:15.461Z,73.78
2023-04-18T07:05:43.338Z,74.04
2023-04-18T07:08:11.425Z,74.09
2023-04-18T07:10:39.119Z,73.89
2023-04-18T07:13:13.419Z,73.71
2023-04-18T07:15:41.792Z,73.65
2023-04-18T07:18:09.320Z,73.79
2023-04-18T07:20:37.026Z,74.71
2023-04-18T07:23:05.140Z,74.30
2023-04-18T07:25:33.051Z,74.33
2023-04-18T07:28:00.739Z,73.36
2023-04-18T07:30:28.658Z,74.07
2023-04-18T07:32:56.158Z,73.10
2023-04-18T07:35:24.164Z,73.24
2023-04-18T07:37:54.116Z,73.46
2023-04-18T07:40:21.745Z,73.61
2023-04-18T07:42:49.634Z,73.71
2023-04-18T07:45:23.366Z,74.34
2023-04-18T07:47:51.713Z,74.42
2023-04-18T07:50:19.400Z,74.21
2023-04-18T07:52:56.242Z,74.08
2023-04-18T07:55:27.361Z,73.95
2023-04-18T07:57:55.377Z,74.13
2023-04-18T08:00:23.064Z,74.72
2023-04-18T08:02:50.725Z,74.09
2023-04-18T08:05:21.816Z,73.62
2023-04-18T08:07:49.473Z,73.31
2023-04-18T08:10:24.902Z,73.30
2023-04-18T08:12:52.541Z,73.22
2023-04-18T08:15:20.062Z,73.46
2023-04-18T08:17:49.413Z,73.67
2023-04-18T08:20:17.070Z,73.86
2023-04-18T08:23:02.380Z,73.63
2023-04-18T08:25:33.397Z,73.35
2023-04-18T08:28:01.000Z,73.16
2023-04-18T08:30:29.029Z,73.44
2023-04-18T08:32:56.486Z,73.33
2023-04-18T08:35:24.705Z,72.81
2023-04-18T08:37:52.177Z,73.18
2023-04-18T08:40:20.154Z,73.29
2023-04-18T08:42:48.020Z,73.18
2023-04-18T08:45:19.095Z,73.67
2023-04-18T08:47:46.874Z,73.91
2023-04-18T08:50:15.991Z,73.68
2023-04-18T08:52:49.469Z,73.42
2023-04-18T08:55:17.306Z,73.60
2023-04-18T08:57:45.349Z,73.49
2023-04-18T09:00:13.927Z,73.18
2023-04-18T09:02:45.354Z,72.75
2023-04-18T09:05:19.205Z,72.77
2023-04-18T09:07:51.873Z,72.79
2023-04-18T09:10:33.522Z,73.07
2023-04-18T09:13:03.777Z,73.31
2023-04-18T09:15:32.126Z,73.06
2023-04-18T09:18:03.332Z,72.87
2023-04-18T09:20:37.750Z,72.95
2023-04-18T09:23:18.134Z,72.17
2023-04-18T09:25:52.421Z,72.97
2023-04-18T09:28:30.649Z,72.79
2023-04-18T09:31:15.723Z,73.30
2023-04-18T09:33:54.152Z,72.89
2023-04-18T09:36:25.213Z,73.35
2023-04-18T09:38:56.027Z,73.57
2023-04-18T09:41:24.263Z,73.74
2023-04-18T09:44:07.949Z,73.72
2023-04-18T09:46:36.234Z,73.63
2023-04-18T09:49:03.850Z,72.83
2023-04-18T09:51:32.093Z,72.06
2023-04-18T09:54:00.869Z,71.84
2023-04-18T09:56:29.170Z,71.76
2023-04-18T09:58:57.472Z,74.10
2023-04-18T10:01:27.987Z,74.74
2023-04-18T10:03:56.803Z,74.31
2023-04-18T10:06:24.729Z,74.87
2023-04-18T10:08:52.760Z,73.82
2023-04-18T10:11:20.767Z,73.60
2023-04-18T10:13:48.758Z,73.27
2023-04-18T10:16:17.011Z,73.02
2023-04-18T10:18:44.456Z,73.34
2023-04-18T10:21:11.854Z,72.67
2023-04-18T10:23:39.644Z,72.76
2023-04-18T10:26:10.069Z,72.22
2023-04-18T10:28:53.673Z,72.15
2023-04-18T10:31:23.072Z,72.11
2023-04-18T10:34:05.378Z,71.75
2023-04-18T10:36:33.566Z,72.12
2023-04-18T10:39:23.561Z,72.30
2023-04-18T10:41:51.644Z,72.90
2023-04-18T10:44:23.199Z,73.34
2023-04-18T10:46:53.918Z,73.15
2023-04-18T10:49:26.876Z,73.36
2023-04-18T10:52:03.455Z,73.44
2023-04-18T10:54:51.405Z,73.34
2023-04-18T10:57:19.061Z,74.45
2023-04-18T10:59:51.139Z,73.38
2023-04-18T11:02:30.398Z,74.23
2023-04-18T11:05:14.312Z,72.77
2023-04-18T11:07:49.493Z,71.81
2023-04-18T11:10:23.202Z,71.07
2023-04-18T11:12:52.082Z,70.30
2023-04-18T11:15:23.713Z,70.14
2023-04-18T11:18:05.190Z,70.63
2023-04-18T11:20:39.936Z,69.93
2023-04-18T11:23:16.273Z,69.33
2023-04-18T11:25:45.172Z,69.94
2023-04-18T11:28:17.445Z,71.50
2023-04-18T11:30:46.156Z,71.15
2023-04-18T11:33:15.091Z,72.56
2023-04-18T11:35:46.494Z,73.86
2023-04-18T11:38:19.743Z,74.53
2023-04-18T11:40:48.717Z,73.50
2023-04-18T11:43:21.083Z,75.62
2023-04-18T11:45:58.660Z,75.81
2023-04-18T11:48:39.810Z,75.75
2023-04-18T11:51:07.724Z,76.66
2023-04-18T11:53:36.071Z,77.64
2023-04-18T11:56:04.668Z,78.36
2023-04-18T11:58:36.869Z,78.02
2023-04-18T12:01:20.767Z,78.66
2023-04-18T12:04:06.934Z,79.08
2023-04-18T12:06:51.126Z,78.41
2023-04-18T12:09:18.778Z,78.83
2023-04-18T12:12:00.177Z,79.99
2023-04-18T12:14:28.539Z,78.74
2023-04-18T12:16:56.674Z,79.43
2023-04-18T12:19:28.359Z,79.36
2023-04-18T12:21:58.574Z,80.71
2023-04-18T12:24:26.581Z,80.66
2023-04-18T12:26:53.885Z,80.85
2023-04-18T12:29:21.316Z,80.90
2023-04-18T12:31:48.668Z,82.02
2023-04-18T12:34:16.472Z,81.77
2023-04-18T12:36:43.999Z,82.41
2023-04-18T12:39:11.391Z,81.64
2023-04-18T12:41:38.688Z,81.91
2023-04-18T12:44:06.862Z,81.03
2023-04-18T12:46:34.223Z,80.53
2023-04-18T12:49:01.806Z,80.95
2023-04-18T12:51:29.179Z,80.61
2023-04-18T12:53:56.623Z,81.35
2023-04-18T12:56:23.912Z,80.45
2023-04-18T12:58:51.331Z,80.74
2023-04-18T13:01:18.684Z,80.85
2023-04-18T13:03:53.428Z,80.63
2023-04-18T13:06:27.806Z,79.46
2023-04-18T13:08:55.110Z,78.55
2023-04-18T13:11:22.653Z,79.72
2023-04-18T13:13:50.079Z,78.82
2023-04-18T13:16:17.348Z,79.69
2023-04-18T13:18:44.880Z,78.24
2023-04-18T13:21:12.318Z,77.92
2023-04-18T13:23:39.778Z,78.66
2023-04-18T13:26:08.654Z,78.98
2023-04-18T13:28:36.724Z,78.65
2023-04-18T13:31:04.160Z,78.51
2023-04-18T13:33:31.411Z,79.09
2023-04-18T13:35:58.979Z,78.73
2023-04-18T13:38:28.734Z,79.47
2023-04-18T13:41:10.873Z,80.46
2023-04-18T13:43:40.069Z,81.11
2023-04-18T13:46:07.375Z,81.47
2023-04-18T13:48:34.811Z,81.53
2023-04-18T13:51:02.719Z,81.61
2023-04-18T13:53:31.108Z,82.09
2023-04-18T13:55:59.185Z,82.83
2023-04-18T13:58:26.538Z,82.32
2023-04-18T14:00:54.057Z,82.22
2023-04-18T14:03:21.678Z,82.31
2023-04-18T14:05:49.117Z,82.92
2023-04-18T14:08:16.625Z,82.76
2023-04-18T14:10:44.308Z,82.71
2023-04-18T14:13:11.655Z,83.51
2023-04-18T14:15:39.173Z,82.89
2023-04-18T14:18:06.709Z,83.11
2023-04-18T14:20:36.797Z,82.72
2023-04-18T14:23:04.163Z,83.09
2023-04-18T14:25:31.442Z,83.31
2023-04-18T14:28:11.040Z,83.34
2023-04-18T14:30:39.384Z,82.70
2023-04-18T14:33:07.302Z,83.18
2023-04-18T14:35:34.778Z,82.97
2023-04-18T14:38:02.137Z,81.79
2023-04-18T14:40:32.583Z,81.21
2023-04-18T14:43:00.489Z,82.20
2023-04-18T14:45:27.983Z,81.84
2023-04-18T14:47:55.938Z,81.48
2023-04-18T14:50:23.335Z,81.14
2023-04-18T14:52:51.013Z,81.63
2023-04-18T14:55:20.130Z,81.99
2023-04-18T14:57:47.476Z,81.59
2023-04-18T15:00:15.600Z,80.91
2023-04-18T15:02:43.283Z,81.43
2023-04-18T15:05:11.420Z,80.47
2023-04-18T15:07:39.084Z,81.44
2023-04-18T15:10:07.207Z,82.23
2023-04-18T15:12:35.028Z,81.40
2023-04-18T15:15:02.380Z,81.50
2023-04-18T15:17:29.900Z,81.32
2023-04-18T15:19:58.765Z,81.77
2023-04-18T15:22:26.104Z,82.40
2023-04-18T15:24:53.305Z,82.36
2023-04-18T15:27:20.839Z,82.09
2023-04-18T15:29:48.177Z,83.04
2023-04-18T15:32:15.633Z,82.24
2023-04-18T15:34:44.284Z,82.63
2023-04-18T15:37:11.574Z,82.94
2023-04-18T15:39:39.250Z,82.55
2023-04-18T15:44:54.391Z,82.12
2023-04-18T15:47:21.726Z,82.20
2023-04-18T15:49:49.091Z,82.05
2023-04-18T15:52:16.748Z,81.77
2023-04-18T15:54:44.265Z,82.19
2023-04-18T15:57:11.561Z,81.46
2023-04-18T15:59:39.022Z,81.65
2023-04-18T16:02:07.231Z,81.98
2023-04-18T16:04:34.882Z,81.16
2023-04-18T16:07:03.128Z,80.47
2023-04-18T16:09:30.740Z,80.49
2023-04-18T16:11:58.038Z,80.42
2023-04-18T16:14:25.509Z,80.19
2023-04-18T16:16:55.104Z,79.68
2023-04-18T16:19:22.457Z,79.33
2023-04-18T16:21:49.923Z,79.19
2023-04-18T16:24:17.443Z,78.77
2023-04-18T16:26:44.932Z,78.61
2023-04-18T16:29:12.257Z,78.82
2023-04-18T16:31:43.459Z,77.88
2023-04-18T16:34:10.956Z,77.92
2023-04-18T16:36:38.348Z,78.40
2023-04-18T16:39:05.823Z,78.17
2023-04-18T16:41:33.528Z,78.07
2023-04-18T16:44:00.955Z,78.35
2023-04-18T16:46:31.432Z,77.82
2023-04-18T16:48:59.102Z,77.93
2023-04-18T16:51:26.981Z,77.88
2023-04-18T16:53:55.054Z,77.90
2023-04-18T16:56:22.429Z,77.49
2023-04-18T16:58:49.853Z,77.30
2023-04-18T17:01:17.103Z,78.12
2023-04-18T17:03:44.723Z,77.76
2023-04-18T17:06:12.125Z,78.31
2023-04-18T17:08:39.585Z,78.09
2023-04-18T17:11:06.966Z,77.22
2023-04-18T17:13:39.611Z,78.05
2023-04-18T17:16:07.492Z,77.17
2023-04-18T17:18:34.794Z,77.05
2023-04-18T17:21:02.227Z,77.80
2023-04-18T17:23:31.553Z,77.02
2023-04-18T17:26:00.319Z,77.70
2023-04-18T17:28:34.089Z,77.23
2023-04-18T17:31:02.100Z,77.43
2023-04-18T17:33:29.380Z,77.06
2023-04-18T17:35:56.849Z,77.85
2023-04-18T17:38:24.172Z,77.68
2023-04-18T17:41:00.857Z,76.93
2023-04-18T17:43:28.320Z,77.75
2023-04-18T17:45:56.005Z,76.51
2023-04-18T17:48:23.419Z,76.63
2023-04-18T17:50:50.804Z,77.18
2023-04-18T17:53:18.346Z,77.23
2023-04-18T17:55:48.884Z,76.94
2023-04-18T17:58:16.960Z,76.62
2023-04-18T18:00:44.298Z,76.56
2023-04-18T18:03:15.238Z,76.62
2023-04-18T18:05:45.469Z,76.87
2023-04-18T18:08:12.841Z,76.11
2023-04-18T18:10:40.489Z,76.10
2023-04-18T18:13:07.906Z,76.05
2023-04-18T18:15:35.677Z,76.51
2023-04-18T18:18:03.064Z,77.00
2023-04-18T18:20:30.853Z,76.87
2023-04-18T18:23:01.804Z,76.86
2023-04-18T18:25:29.206Z,76.52
2023-04-18T18:27:56.395Z,76.49
2023-04-18T18:30:23.862Z,76.22
2023-04-18T18:32:51.318Z,75.65
2023-04-18T18:35:18.767Z,75.78
2023-04-18T18:37:46.025Z,76.12
2023-04-18T18:40:13.473Z,75.47
2023-04-18T18:42:41.152Z,75.90
2023-04-18T18:45:09.288Z,75.95
2023-04-18T18:47:39.009Z,75.25
2023-04-18T18:50:07.677Z,75.11
2023-04-18T18:52:34.964Z,74.96
2023-04-18T18:55:03.342Z,74.86
2023-04-18T18:57:30.682Z,74.63
2023-04-18T18:59:58.030Z,74.49
2023-04-18T19:02:25.717Z,75.47
2023-04-18T19:04:53.463Z,74.14
2023-04-18T19:07:20.777Z,74.49
2023-04-18T19:09:48.105Z,74.97
2023-04-18T19:12:15.987Z,73.91
2023-04-18T19:14:43.199Z,73.76
2023-04-18T19:17:10.413Z,74.55
2023-04-18T19:19:37.717Z,74.49
2023-04-18T19:22:06.519Z,74.15
2023-04-18T19:24:34.921Z,73.80
2023-04-18T19:27:02.956Z,73.91
2023-04-18T19:29:32.750Z,73.98
2023-04-18T19:32:00.366Z,73.84
2023-04-18T19:34:27.681Z,72.04
2023-04-18T19:36:54.989Z,72.93
2023-04-18T19:39:22.244Z,75.30
2023-04-18T19:41:49.549Z,76.75
2023-04-18T19:44:16.769Z,77.43
2023-04-18T19:46:44.127Z,77.86
2023-04-18T19:49:11.425Z,77.70
2023-04-18T19:51:39.438Z,77.52
2023-04-18T19:54:06.752Z,76.43
2023-04-18T19:56:34.144Z,76.86
2023-04-18T19:59:01.748Z,76.35
2023-04-18T20:01:29.394Z,77.14
2023-04-18T20:04:00.141Z,77.07
2023-04-18T20:06:28.073Z,77.42
2023-04-18T20:08:55.436Z,78.07
2023-04-18T20:11:22.805Z,78.35
2023-04-18T20:13:52.160Z,79.04
2023-04-18T20:16:19.608Z,78.53
2023-04-18T20:18:47.512Z,78.04
2023-04-18T20:21:14.898Z,78.84
2023-04-18T20:23:42.840Z,78.68
2023-04-18T20:26:10.292Z,78.96
2023-04-18T20:28:37.995Z,78.56
2023-04-18T20:31:05.423Z,77.66
2023-04-18T20:33:32.950Z,77.86
2023-04-18T20:36:00.391Z,78.16
2023-04-18T20:38:29.813Z,78.71
2023-04-18T20:41:00.826Z,79.04
2023-04-18T20:43:28.275Z,77.88
2023-04-18T20:45:57.664Z,77.73
2023-04-18T20:48:25.134Z,77.75
2023-04-18T20:50:52.724Z,76.98
2023-04-18T20:53:26.198Z,77.42
2023-04-18T20:55:53.470Z,77.28
2023-04-18T20:58:20.825Z,77.58
2023-04-18T21:00:48.983Z,76.71
2023-04-18T21:03:16.941Z,77.34
2023-04-18T21:05:44.963Z,76.90
2023-04-18T21:08:12.275Z,76.61
2023-04-18T21:10:39.937Z,76.64
2023-04-18T21:13:07.263Z,77.21
2023-04-18T21:15:35.623Z,77.84
2023-04-18T21:18:03.032Z,77.67
2023-04-18T21:20:30.579Z,77.34
2023-04-18T21:22:57.807Z,76.05
2023-04-18T21:25:25.234Z,76.53
2023-04-18T21:27:52.569Z,76.13
2023-04-18T21:30:19.947Z,76.24
2023-04-18T21:32:49.299Z,75.33
2023-04-18T21:35:19.370Z,75.09
2023-04-18T21:37:47.505Z,75.61
2023-04-18T21:40:14.853Z,74.50
2023-04-18T21:42:42.209Z,74.04
2023-04-18T21:45:10.234Z,73.71
2023-04-18T21:47:38.272Z,74.33
2023-04-18T21:50:06.156Z,73.62
2023-04-18T21:52:33.618Z,72.97
2023-04-18T21:55:00.880Z,72.72
2023-04-18T21:57:28.128Z,73.47
2023-04-18T21:59:59.836Z,73.22
2023-04-18T22:02:27.466Z,73.46
2023-04-18T22:04:54.736Z,73.67
2023-04-18T22:07:24.672Z,73.49
2023-04-18T22:09:51.971Z,73.45
2023-04-18T22:12:19.394Z,73.07
2023-04-18T22:14:48.485Z,72.64
2023-04-18T22:17:15.928Z,73.02
2023-04-18T22:19:44.538Z,72.70
2023-04-18T22:22:12.201Z,73.07
2023-04-18T22:24:39.415Z,71.55
2023-04-18T22:27:06.896Z,72.19
2023-04-18T22:29:34.106Z,72.60
2023-04-18T22:32:01.406Z,72.74
2023-04-18T22:34:28.674Z,72.18
2023-04-18T22:36:55.959Z,72.00
2023-04-18T22:39:24.336Z,71.94
2023-04-18T22:41:51.566Z,73.07
2023-04-18T22:44:18.782Z,72.04
2023-04-18T22:46:48.126Z,72.89
2023-04-18T22:49:15.649Z,72.44
2023-04-18T22:51:44.074Z,72.63
2023-04-18T22:54:11.387Z,73.46
2023-04-18T22:56:38.621Z,73.50
2023-04-18T22:59:05.872Z,73.78
2023-04-18T23:01:33.197Z,73.57
2023-04-18T23:04:00.638Z,73.62
2023-04-18T23:06:28.438Z,72.78
2023-04-18T23:08:55.891Z,72.82
2023-04-18T23:11:23.174Z,73.49
2023-04-18T23:13:50.458Z,73.29
2023-04-18T23:16:17.930Z,72.68
2023-04-18T23:18:45.141Z,73.19
2023-04-18T23:21:12.524Z,73.52
2023-04-18T23:23:39.725Z,73.31
2023-04-18T23:26:14.334Z,73.62
2023-04-18T23:28:42.374Z,72.54
2023-04-18T23:31:09.822Z,73.38
2023-04-18T23:33:37.542Z,73.07
2023-04-18T23:36:04.903Z,73.25
2023-04-18T23:38:32.485Z,72.30
2023-04-18T23:40:59.685Z,72.88
2023-04-18T23:43:27.051Z,73.46
2023-04-18T23:45:54.301Z,73.63
2023-04-18T23:48:21.620Z,73.07
2023-04-18T23:50:50.183Z,72.88
2023-04-18T23:53:17.609Z,73.60
2023-04-18T23:55:46.171Z,72.98
2023-04-18T23:58:14.108Z,73.59
